createdAt,value
2017-02-01T00:00:29.175Z,1005.61
2017-02-01T00:01:09.859Z,1005.64
2017-02-01T00:01:50.511Z,1005.66
2017-02-01T00:02:31.768Z,1005.69
2017-02-01T00:03:12.428Z,1005.72
2017-02-01T00:03:53.131Z,1005.71
2017-02-01T00:04:33.844Z,1005.7
2017-02-01T00:05:14.475Z,1005.66
2017-02-01T00:05:55.183Z,1005.69
2017-02-01T00:06:35.887Z,1005.66
2017-02-01T00:07:16.600Z,1005.67
2017-02-01T00:07:57.251Z,1005.64
2017-02-01T00:08:38.863Z,1005.65
2017-02-01T00:09:19.540Z,1005.61
2017-02-01T00:10:00.180Z,1005.6
2017-02-01T00:10:40.929Z,1005.62
2017-02-01T00:11:21.628Z,1005.62
2017-02-01T00:12:02.307Z,1005.61
2017-02-01T00:12:42.958Z,1005.56
2017-02-01T00:13:23.672Z,1005.58
2017-02-01T00:14:04.365Z,1005.58
2017-02-01T00:14:44.986Z,1005.56
2017-02-01T00:15:25.685Z,1005.62
2017-02-01T00:16:06.438Z,1005.66
2017-02-01T00:16:47.146Z,1005.68
2017-02-01T00:17:27.784Z,1005.72
2017-02-01T00:18:08.409Z,1005.76
2017-02-01T00:18:49.139Z,1005.8
2017-02-01T00:19:29.789Z,1005.85
2017-02-01T00:20:10.531Z,1005.89
2017-02-01T00:20:51.221Z,1005.89
2017-02-01T00:21:31.854Z,1005.88
2017-02-01T00:22:12.536Z,1005.88
2017-02-01T00:22:53.286Z,1005.86
2017-02-01T00:23:33.920Z,1005.92
2017-02-01T00:24:14.547Z,1005.89
2017-02-01T00:24:55.297Z,1005.88
2017-02-01T00:25:35.996Z,1005.9
2017-02-01T00:26:16.636Z,1005.93
2017-02-01T00:26:57.393Z,1005.92
2017-02-01T00:27:38.037Z,1005.93
2017-02-01T00:28:18.703Z,1005.89
2017-02-01T00:28:59.371Z,1005.89
2017-02-01T00:29:40.062Z,1005.89
2017-02-01T00:30:20.713Z,1005.89
2017-02-01T00:31:01.348Z,1005.89
2017-02-01T00:31:42.035Z,1005.92
2017-02-01T00:32:22.767Z,1005.86
2017-02-01T00:33:03.472Z,1005.84
2017-02-01T00:33:44.067Z,1005.84
2017-02-01T00:34:24.704Z,1005.82
2017-02-01T00:35:05.440Z,1005.79
2017-02-01T00:35:46.036Z,1005.76
2017-02-01T00:36:26.740Z,1005.7
2017-02-01T00:37:07.435Z,1005.69
2017-02-01T00:37:48.069Z,1005.65
2017-02-01T00:38:29.349Z,1005.62
2017-02-01T00:39:09.984Z,1005.51
2017-02-01T00:39:50.704Z,1005.49
2017-02-01T00:40:31.425Z,1005.43
2017-02-01T00:41:12.091Z,1005.46
2017-02-01T00:41:52.778Z,1005.39
2017-02-01T00:42:33.497Z,1005.4
2017-02-01T00:43:14.172Z,1005.41
2017-02-01T00:43:54.804Z,1005.39
2017-02-01T00:44:35.574Z,1005.39
2017-02-01T00:45:16.274Z,1005.42
2017-02-01T00:45:56.920Z,1005.41
2017-02-01T00:46:37.609Z,1005.39
2017-02-01T00:47:18.245Z,1005.41
2017-02-01T00:47:58.941Z,1005.41
2017-02-01T00:48:39.589Z,1005.45
2017-02-01T00:49:20.360Z,1005.42
2017-02-01T00:50:01.041Z,1005.45
2017-02-01T00:50:41.673Z,1005.47
2017-02-01T00:51:22.395Z,1005.46
2017-02-01T00:52:03.110Z,1005.46
2017-02-01T00:52:43.817Z,1005.45
2017-02-01T00:53:24.445Z,1005.46
2017-02-01T00:54:05.205Z,1005.48
2017-02-01T00:54:45.929Z,1005.53
2017-02-01T00:55:26.620Z,1005.52
2017-02-01T00:56:07.284Z,1005.52
2017-02-01T00:56:48.020Z,1005.52
2017-02-01T00:57:28.744Z,1005.54
2017-02-01T00:58:09.376Z,1005.56
2017-02-01T00:58:50.092Z,1005.53
2017-02-01T00:59:30.803Z,1005.59
2017-02-01T01:00:11.440Z,1005.63
2017-02-01T01:00:52.088Z,1005.65
2017-02-01T01:01:32.850Z,1005.69
2017-02-01T01:02:13.560Z,1005.73
2017-02-01T01:02:54.209Z,1005.71
2017-02-01T01:03:34.911Z,1005.7
2017-02-01T01:04:15.631Z,1005.69
2017-02-01T01:04:56.271Z,1005.68
2017-02-01T01:05:36.927Z,1005.63
2017-02-01T01:06:17.688Z,1005.64
2017-02-01T01:06:58.382Z,1005.67
2017-02-01T01:07:39.021Z,1005.61
2017-02-01T01:08:19.732Z,1005.69
2017-02-01T01:09:00.426Z,1005.69
2017-02-01T01:09:41.147Z,1005.68
2017-02-01T01:10:21.788Z,1005.7
2017-02-01T01:11:02.521Z,1005.75
2017-02-01T01:11:43.184Z,1005.73
2017-02-01T01:12:23.834Z,1005.71
2017-02-01T01:13:04.579Z,1005.71
2017-02-01T01:13:45.264Z,1005.7
2017-02-01T01:14:25.949Z,1005.66
2017-02-01T01:15:06.593Z,1005.7
2017-02-01T01:15:47.364Z,1005.7
2017-02-01T01:16:28.046Z,1005.69
2017-02-01T01:17:08.775Z,1005.72
2017-02-01T01:17:49.348Z,1005.73
2017-02-01T01:18:30.020Z,1005.74
2017-02-01T01:19:10.743Z,1005.76
2017-02-01T01:19:51.398Z,1005.74
2017-02-01T01:20:32.155Z,1005.76
2017-02-01T01:21:12.857Z,1005.76
2017-02-01T01:21:53.527Z,1005.77
2017-02-01T01:22:34.140Z,1005.8
2017-02-01T01:23:14.767Z,1005.82
2017-02-01T01:23:55.496Z,1005.81
2017-02-01T01:24:36.096Z,1005.83
2017-02-01T01:25:16.796Z,1005.82
2017-02-01T01:25:57.480Z,1005.83
2017-02-01T01:26:38.122Z,1005.84
2017-02-01T01:27:18.888Z,1005.89
2017-02-01T01:27:59.582Z,1005.93
2017-02-01T01:28:40.319Z,1005.9
2017-02-01T01:29:20.905Z,1005.9
2017-02-01T01:30:01.615Z,1005.91
2017-02-01T01:30:42.310Z,1005.9
2017-02-01T01:31:22.941Z,1005.93
2017-02-01T01:32:03.686Z,1005.92
2017-02-01T01:32:44.396Z,1005.91
2017-02-01T01:33:25.069Z,1005.97
2017-02-01T01:34:05.745Z,1005.96
2017-02-01T01:34:46.491Z,1005.97
2017-02-01T01:35:27.215Z,1005.97
2017-02-01T01:36:07.839Z,1005.94
2017-02-01T01:36:48.552Z,1005.92
2017-02-01T01:37:29.261Z,1005.95
2017-02-01T01:38:09.934Z,1005.97
2017-02-01T01:38:50.596Z,1005.99
2017-02-01T01:39:31.321Z,1005.94
2017-02-01T01:40:12.041Z,1005.96
2017-02-01T01:40:52.801Z,1005.95
2017-02-01T01:41:33.426Z,1005.95
2017-02-01T01:42:14.114Z,1005.92
2017-02-01T01:42:54.796Z,1005.93
2017-02-01T01:43:35.432Z,1005.9
2017-02-01T01:44:16.114Z,1005.88
2017-02-01T01:44:56.867Z,1005.88
2017-02-01T01:45:37.493Z,1005.86
2017-02-01T01:46:18.136Z,1005.86
2017-02-01T01:46:58.787Z,1005.89
2017-02-01T01:47:39.420Z,1005.85
2017-02-01T01:48:20.121Z,1005.86
2017-02-01T01:49:00.901Z,1005.82
2017-02-01T01:49:41.530Z,1005.87
2017-02-01T01:50:22.180Z,1005.81
2017-02-01T01:51:02.907Z,1005.84
2017-02-01T01:51:43.610Z,1005.87
2017-02-01T01:52:24.268Z,1005.84
2017-02-01T01:53:04.932Z,1005.83
2017-02-01T01:53:45.679Z,1005.85
2017-02-01T01:54:26.327Z,1005.86
2017-02-01T01:55:06.961Z,1005.84
2017-02-01T01:55:47.716Z,1005.83
2017-02-01T01:56:28.429Z,1005.85
2017-02-01T01:57:09.069Z,1005.88
2017-02-01T01:57:49.748Z,1005.88
2017-02-01T01:58:30.435Z,1005.89
2017-02-01T01:59:11.147Z,1005.86
2017-02-01T01:59:51.779Z,1005.85
2017-02-01T02:00:32.480Z,1005.84
2017-02-01T02:01:13.209Z,1005.85
2017-02-01T02:01:53.841Z,1005.89
2017-02-01T02:02:34.607Z,1005.87
2017-02-01T02:03:15.281Z,1005.89
2017-02-01T02:03:56.028Z,1005.91
2017-02-01T02:04:36.657Z,1005.9
2017-02-01T02:05:17.313Z,1005.94
2017-02-01T02:05:58.037Z,1005.95
2017-02-01T02:06:38.668Z,1005.94
2017-02-01T02:07:19.416Z,1005.94
2017-02-01T02:08:00.099Z,1005.96
2017-02-01T02:08:40.787Z,1005.97
2017-02-01T02:09:21.410Z,1006.02
2017-02-01T02:10:02.152Z,1005.99
2017-02-01T02:10:42.886Z,1005.95
2017-02-01T02:11:23.622Z,1005.94
2017-02-01T02:12:04.215Z,1005.99
2017-02-01T02:12:44.929Z,1005.96
2017-02-01T02:13:25.613Z,1005.97
2017-02-01T02:14:06.252Z,1005.99
2017-02-01T02:14:47.944Z,1006.02
2017-02-01T02:15:28.728Z,1006.05
2017-02-01T02:16:09.474Z,1006.1
2017-02-01T02:16:50.119Z,1006.18
2017-02-01T02:17:30.803Z,1006.17
2017-02-01T02:18:11.515Z,1006.18
2017-02-01T02:18:52.164Z,1006.18
2017-02-01T02:19:32.871Z,1006.15
2017-02-01T02:20:13.628Z,1006.11
2017-02-01T02:20:54.270Z,1006.11
2017-02-01T02:21:34.908Z,1006.1
2017-02-01T02:22:15.602Z,1006.09
2017-02-01T02:22:56.352Z,1006.08
2017-02-01T02:23:36.966Z,1006.1
2017-02-01T02:24:17.646Z,1006.09
2017-02-01T02:24:58.322Z,1006.12
2017-02-01T02:25:38.992Z,1006.1
2017-02-01T02:26:19.649Z,1006.12
2017-02-01T02:27:00.355Z,1006.15
2017-02-01T02:27:41.042Z,1006.13
2017-02-01T02:28:21.665Z,1006.12
2017-02-01T02:29:02.365Z,1006.13
2017-02-01T02:29:43.113Z,1006.14
2017-02-01T02:30:23.809Z,1006.17
2017-02-01T02:31:04.486Z,1006.14
2017-02-01T02:31:45.181Z,1006.15
2017-02-01T02:32:25.868Z,1006.16
2017-02-01T02:33:06.494Z,1006.16
2017-02-01T02:33:47.185Z,1006.14
2017-02-01T02:34:27.875Z,1006.17
2017-02-01T02:35:08.508Z,1006.14
2017-02-01T02:35:49.189Z,1006.13
2017-02-01T02:36:29.980Z,1006.16
2017-02-01T02:37:10.628Z,1006.16
2017-02-01T02:37:51.248Z,1006.17
2017-02-01T02:38:31.978Z,1006.17
2017-02-01T02:39:12.680Z,1006.18
2017-02-01T02:39:53.308Z,1006.14
2017-02-01T02:40:34.017Z,1006.18
2017-02-01T02:41:14.731Z,1006.2
2017-02-01T02:41:55.440Z,1006.18
2017-02-01T02:42:36.093Z,1006.17
2017-02-01T02:43:16.796Z,1006.19
2017-02-01T02:43:57.510Z,1006.16
2017-02-01T02:44:38.147Z,1006.17
2017-02-01T02:45:18.857Z,1006.19
2017-02-01T02:45:59.496Z,1006.19
2017-02-01T02:46:40.170Z,1006.21
2017-02-01T02:47:20.766Z,1006.17
2017-02-01T02:48:01.518Z,1006.18
2017-02-01T02:48:42.225Z,1006.18
2017-02-01T02:49:22.860Z,1006.17
2017-02-01T02:50:03.542Z,1006.12
2017-02-01T02:50:44.256Z,1006.13
2017-02-01T02:51:24.895Z,1006.09
2017-02-01T02:52:05.563Z,1006.08
2017-02-01T02:52:46.318Z,1006.03
2017-02-01T02:53:26.978Z,1006.01
2017-02-01T02:54:07.611Z,1006
2017-02-01T02:54:48.336Z,1006.02
2017-02-01T02:55:29.040Z,1005.97
2017-02-01T02:56:09.671Z,1005.98
2017-02-01T02:56:50.378Z,1005.97
2017-02-01T02:57:31.092Z,1005.98
2017-02-01T02:58:11.800Z,1005.99
2017-02-01T02:58:52.435Z,1005.96
2017-02-01T02:59:33.153Z,1006
2017-02-01T03:00:13.862Z,1005.98
2017-02-01T03:00:54.484Z,1006.03
2017-02-01T03:01:35.196Z,1005.99
2017-02-01T03:02:15.905Z,1006.01
2017-02-01T03:02:56.635Z,1006.04
2017-02-01T03:03:37.265Z,1006.04
2017-02-01T03:04:18.010Z,1006.06
2017-02-01T03:04:58.721Z,1006.1
2017-02-01T03:05:39.448Z,1006.14
2017-02-01T03:06:20.033Z,1006.15
2017-02-01T03:07:00.748Z,1006.16
2017-02-01T03:07:41.441Z,1006.21
2017-02-01T03:08:22.081Z,1006.25
2017-02-01T03:09:02.826Z,1006.29
2017-02-01T03:09:43.530Z,1006.31
2017-02-01T03:10:24.242Z,1006.3
2017-02-01T03:11:04.869Z,1006.3
2017-02-01T03:11:45.581Z,1006.34
2017-02-01T03:12:26.269Z,1006.34
2017-02-01T03:13:06.895Z,1006.34
2017-02-01T03:13:48.487Z,1006.31
2017-02-01T03:14:29.198Z,1006.31
2017-02-01T03:15:09.836Z,1006.31
2017-02-01T03:15:50.466Z,1006.3
2017-02-01T03:16:31.105Z,1006.31
2017-02-01T03:17:11.724Z,1006.31
2017-02-01T03:17:52.466Z,1006.34
2017-02-01T03:18:33.194Z,1006.34
2017-02-01T03:19:13.921Z,1006.35
2017-02-01T03:19:54.569Z,1006.38
2017-02-01T03:20:35.313Z,1006.33
2017-02-01T03:21:16.025Z,1006.36
2017-02-01T03:21:56.675Z,1006.37
2017-02-01T03:22:37.378Z,1006.37
2017-02-01T03:23:18.070Z,1006.34
2017-02-01T03:23:58.730Z,1006.34
2017-02-01T03:24:39.363Z,1006.36
2017-02-01T03:25:20.010Z,1006.32
2017-02-01T03:26:01.454Z,1006.35
2017-02-01T03:26:42.213Z,1006.34
2017-02-01T03:27:22.916Z,1006.36
2017-02-01T03:28:03.620Z,1006.4
2017-02-01T03:28:44.247Z,1006.39
2017-02-01T03:29:24.978Z,1006.39
2017-02-01T03:30:05.685Z,1006.43
2017-02-01T03:30:46.308Z,1006.4
2017-02-01T03:31:26.940Z,1006.43
2017-02-01T03:32:07.618Z,1006.43
2017-02-01T03:32:48.271Z,1006.47
2017-02-01T03:33:28.940Z,1006.52
2017-02-01T03:34:09.700Z,1006.53
2017-02-01T03:34:50.339Z,1006.52
2017-02-01T03:35:30.979Z,1006.54
2017-02-01T03:36:11.695Z,1006.57
2017-02-01T03:36:52.412Z,1006.52
2017-02-01T03:37:33.039Z,1006.54
2017-02-01T03:38:13.753Z,1006.53
2017-02-01T03:38:54.450Z,1006.55
2017-02-01T03:39:35.159Z,1006.53
2017-02-01T03:40:15.786Z,1006.57
2017-02-01T03:40:56.512Z,1006.6
2017-02-01T03:41:37.221Z,1006.6
2017-02-01T03:42:17.854Z,1006.59
2017-02-01T03:42:58.567Z,1006.59
2017-02-01T03:43:39.294Z,1006.61
2017-02-01T03:44:19.983Z,1006.63
2017-02-01T03:45:00.612Z,1006.61
2017-02-01T03:45:41.338Z,1006.58
2017-02-01T03:46:21.996Z,1006.55
2017-02-01T03:47:02.629Z,1006.52
2017-02-01T03:47:43.378Z,1006.51
2017-02-01T03:48:24.091Z,1006.45
2017-02-01T03:49:05.467Z,1006.46
2017-02-01T03:49:46.193Z,1006.43
2017-02-01T03:50:26.911Z,1006.46
2017-02-01T03:51:07.556Z,1006.45
2017-02-01T03:51:48.259Z,1006.45
2017-02-01T03:52:28.926Z,1006.47
2017-02-01T03:53:09.671Z,1006.43
2017-02-01T03:53:50.281Z,1006.43
2017-02-01T03:54:31.003Z,1006.38
2017-02-01T03:55:11.698Z,1006.39
2017-02-01T03:55:52.337Z,1006.36
2017-02-01T03:56:33.067Z,1006.28
2017-02-01T03:57:13.785Z,1006.32
2017-02-01T03:57:54.464Z,1006.35
2017-02-01T03:58:35.092Z,1006.35
2017-02-01T03:59:16.384Z,1006.4
2017-02-01T03:59:57.016Z,1006.41
2017-02-01T04:00:37.755Z,1006.39
2017-02-01T04:01:18.453Z,1006.41
2017-02-01T04:01:59.076Z,1006.39
2017-02-01T04:02:39.769Z,1006.35
2017-02-01T04:03:20.490Z,1006.33
2017-02-01T04:04:01.223Z,1006.3
2017-02-01T04:04:41.835Z,1006.3
2017-02-01T04:05:22.563Z,1006.28
2017-02-01T04:06:03.289Z,1006.32
2017-02-01T04:06:43.928Z,1006.32
2017-02-01T04:07:25.581Z,1006.36
2017-02-01T04:08:06.289Z,1006.33
2017-02-01T04:08:47.005Z,1006.33
2017-02-01T04:09:27.630Z,1006.33
2017-02-01T04:10:08.370Z,1006.34
2017-02-01T04:10:49.068Z,1006.3
2017-02-01T04:11:29.706Z,1006.26
2017-02-01T04:12:10.427Z,1006.3
2017-02-01T04:12:51.142Z,1006.31
2017-02-01T04:13:31.829Z,1006.31
2017-02-01T04:14:12.454Z,1006.34
2017-02-01T04:14:53.202Z,1006.3
2017-02-01T04:15:33.925Z,1006.3
2017-02-01T04:16:14.561Z,1006.29
2017-02-01T04:16:55.251Z,1006.3
2017-02-01T04:17:35.970Z,1006.23
2017-02-01T04:18:16.650Z,1006.26
2017-02-01T04:18:57.275Z,1006.23
2017-02-01T04:19:38.024Z,1006.28
2017-02-01T04:20:18.741Z,1006.27
2017-02-01T04:20:59.478Z,1006.28
2017-02-01T04:21:40.061Z,1006.35
2017-02-01T04:22:21.262Z,1006.37
2017-02-01T04:23:01.966Z,1006.38
2017-02-01T04:23:42.677Z,1006.41
2017-02-01T04:24:23.394Z,1006.41
2017-02-01T04:25:04.015Z,1006.4
2017-02-01T04:25:44.753Z,1006.36
2017-02-01T04:26:25.454Z,1006.32
2017-02-01T04:27:06.092Z,1006.31
2017-02-01T04:27:46.803Z,1006.31
2017-02-01T04:28:27.513Z,1006.33
2017-02-01T04:29:08.211Z,1006.31
2017-02-01T04:29:48.835Z,1006.4
2017-02-01T04:30:29.571Z,1006.4
2017-02-01T04:31:10.301Z,1006.42
2017-02-01T04:31:50.942Z,1006.43
2017-02-01T04:32:31.627Z,1006.43
2017-02-01T04:33:12.356Z,1006.42
2017-02-01T04:33:53.034Z,1006.39
2017-02-01T04:34:33.661Z,1006.36
2017-02-01T04:35:14.387Z,1006.36
2017-02-01T04:35:55.100Z,1006.32
2017-02-01T04:36:35.723Z,1006.33
2017-02-01T04:37:17.059Z,1006.36
2017-02-01T04:37:57.692Z,1006.41
2017-02-01T04:38:38.363Z,1006.43
2017-02-01T04:39:19.056Z,1006.46
2017-02-01T04:39:59.767Z,1006.49
2017-02-01T04:40:40.400Z,1006.44
2017-02-01T04:41:21.122Z,1006.41
2017-02-01T04:42:01.835Z,1006.41
2017-02-01T04:42:42.470Z,1006.37
2017-02-01T04:43:23.199Z,1006.38
2017-02-01T04:44:03.899Z,1006.35
2017-02-01T04:44:44.588Z,1006.35
2017-02-01T04:45:25.218Z,1006.37
2017-02-01T04:46:05.940Z,1006.38
2017-02-01T04:46:46.649Z,1006.38
2017-02-01T04:47:27.285Z,1006.4
2017-02-01T04:48:08.002Z,1006.44
2017-02-01T04:48:48.690Z,1006.42
2017-02-01T04:49:29.403Z,1006.41
2017-02-01T04:50:10.050Z,1006.41
2017-02-01T04:50:50.771Z,1006.44
2017-02-01T04:51:31.420Z,1006.49
2017-02-01T04:52:12.045Z,1006.49
2017-02-01T04:52:52.799Z,1006.49
2017-02-01T04:53:33.508Z,1006.48
2017-02-01T04:54:14.230Z,1006.53
2017-02-01T04:54:54.881Z,1006.5
2017-02-01T04:55:35.621Z,1006.48
2017-02-01T04:56:16.321Z,1006.53
2017-02-01T04:56:56.955Z,1006.53
2017-02-01T04:57:37.617Z,1006.51
2017-02-01T04:58:18.326Z,1006.51
2017-02-01T04:58:59.051Z,1006.51
2017-02-01T04:59:39.692Z,1006.52
2017-02-01T05:00:20.967Z,1006.47
2017-02-01T05:01:01.603Z,1006.47
2017-02-01T05:01:42.353Z,1006.46
2017-02-01T05:02:23.073Z,1006.49
2017-02-01T05:03:03.821Z,1006.48
2017-02-01T05:03:44.392Z,1006.46
2017-02-01T05:04:25.104Z,1006.47
2017-02-01T05:05:05.798Z,1006.45
2017-02-01T05:05:46.414Z,1006.47
2017-02-01T05:06:27.141Z,1006.49
2017-02-01T05:07:07.851Z,1006.43
2017-02-01T05:07:48.480Z,1006.44
2017-02-01T05:08:29.218Z,1006.43
2017-02-01T05:09:09.924Z,1006.42
2017-02-01T05:09:50.612Z,1006.38
2017-02-01T05:10:31.242Z,1006.36
2017-02-01T05:11:11.969Z,1006.35
2017-02-01T05:11:52.719Z,1006.36
2017-02-01T05:12:33.487Z,1006.34
2017-02-01T05:13:14.130Z,1006.32
2017-02-01T05:13:54.848Z,1006.33
2017-02-01T05:14:35.563Z,1006.37
2017-02-01T05:15:16.189Z,1006.4
2017-02-01T05:15:56.880Z,1006.37
2017-02-01T05:16:37.567Z,1006.37
2017-02-01T05:17:18.233Z,1006.37
2017-02-01T05:17:58.883Z,1006.41
2017-02-01T05:18:39.559Z,1006.43
2017-02-01T05:19:20.198Z,1006.45
2017-02-01T05:20:00.847Z,1006.47
2017-02-01T05:20:41.526Z,1006.48
2017-02-01T05:21:22.150Z,1006.49
2017-02-01T05:22:02.779Z,1006.52
2017-02-01T05:22:43.481Z,1006.54
2017-02-01T05:23:24.208Z,1006.54
2017-02-01T05:24:04.831Z,1006.53
2017-02-01T05:24:45.566Z,1006.54
2017-02-01T05:25:26.278Z,1006.56
2017-02-01T05:26:06.966Z,1006.59
2017-02-01T05:26:47.585Z,1006.58
2017-02-01T05:27:28.325Z,1006.58
2017-02-01T05:28:09.073Z,1006.63
2017-02-01T05:28:49.699Z,1006.62
2017-02-01T05:29:30.387Z,1006.64
2017-02-01T05:30:11.100Z,1006.65
2017-02-01T05:30:51.780Z,1006.67
2017-02-01T05:31:32.406Z,1006.65
2017-02-01T05:32:13.101Z,1006.68
2017-02-01T05:32:53.896Z,1006.72
2017-02-01T05:33:34.594Z,1006.72
2017-02-01T05:34:15.253Z,1006.74
2017-02-01T05:34:56.002Z,1006.78
2017-02-01T05:35:36.707Z,1006.8
2017-02-01T05:36:17.341Z,1006.82
2017-02-01T05:36:58.057Z,1006.84
2017-02-01T05:37:38.740Z,1006.84
2017-02-01T05:38:19.419Z,1006.87
2017-02-01T05:39:00.060Z,1006.9
2017-02-01T05:39:40.748Z,1006.86
2017-02-01T05:40:21.366Z,1006.85
2017-02-01T05:41:02.003Z,1006.84
2017-02-01T05:41:42.719Z,1006.88
2017-02-01T05:42:23.428Z,1006.94
2017-02-01T05:43:04.063Z,1006.9
2017-02-01T05:43:44.706Z,1006.89
2017-02-01T05:44:25.415Z,1006.92
2017-02-01T05:45:06.127Z,1006.94
2017-02-01T05:45:46.778Z,1006.92
2017-02-01T05:46:27.452Z,1006.94
2017-02-01T05:47:08.142Z,1006.95
2017-02-01T05:47:48.776Z,1006.95
2017-02-01T05:48:29.541Z,1007.01
2017-02-01T05:49:10.244Z,1006.98
2017-02-01T05:49:50.959Z,1006.96
2017-02-01T05:50:31.617Z,1006.94
2017-02-01T05:51:12.376Z,1007
2017-02-01T05:51:53.060Z,1006.93
2017-02-01T05:52:33.676Z,1006.97
2017-02-01T05:53:14.387Z,1006.9
2017-02-01T05:53:55.105Z,1006.87
2017-02-01T05:54:35.769Z,1006.92
2017-02-01T05:55:16.406Z,1006.92
2017-02-01T05:55:57.106Z,1006.87
2017-02-01T05:56:37.739Z,1006.84
2017-02-01T05:57:18.364Z,1006.84
2017-02-01T05:57:59.076Z,1006.84
2017-02-01T05:58:39.777Z,1006.83
2017-02-01T05:59:20.409Z,1006.85
2017-02-01T06:00:01.103Z,1006.86
2017-02-01T06:00:41.890Z,1006.87
2017-02-01T06:01:22.533Z,1006.89
2017-02-01T06:02:03.157Z,1006.92
2017-02-01T06:02:43.881Z,1006.94
2017-02-01T06:03:24.599Z,1006.93
2017-02-01T06:04:05.238Z,1006.9
2017-02-01T06:04:45.965Z,1006.92
2017-02-01T06:05:26.694Z,1006.83
2017-02-01T06:06:07.352Z,1006.91
2017-02-01T06:06:47.991Z,1006.88
2017-02-01T06:07:28.718Z,1006.82
2017-02-01T06:08:09.392Z,1006.87
2017-02-01T06:08:50.021Z,1006.89
2017-02-01T06:09:30.740Z,1006.87
2017-02-01T06:10:11.451Z,1006.89
2017-02-01T06:10:52.080Z,1006.88
2017-02-01T06:11:32.732Z,1006.89
2017-02-01T06:12:13.398Z,1006.91
2017-02-01T06:12:54.134Z,1006.91
2017-02-01T06:13:34.763Z,1006.91
2017-02-01T06:14:15.454Z,1006.95
2017-02-01T06:14:56.117Z,1006.95
2017-02-01T06:15:36.765Z,1006.96
2017-02-01T06:16:17.458Z,1006.95
2017-02-01T06:16:58.121Z,1006.96
2017-02-01T06:17:38.807Z,1006.99
2017-02-01T06:18:19.396Z,1007
2017-02-01T06:19:00.133Z,1006.98
2017-02-01T06:19:40.847Z,1006.99
2017-02-01T06:20:21.478Z,1007.02
2017-02-01T06:21:02.175Z,1007.03
2017-02-01T06:21:43.724Z,1007.1
2017-02-01T06:22:24.345Z,1007.1
2017-02-01T06:23:05.073Z,1007.09
2017-02-01T06:23:45.733Z,1007.1
2017-02-01T06:24:26.363Z,1007.12
2017-02-01T06:25:07.022Z,1007.08
2017-02-01T06:25:48.189Z,1007.05
2017-02-01T06:26:28.849Z,1007.07
2017-02-01T06:27:09.479Z,1007.08
2017-02-01T06:27:50.098Z,1007.11
2017-02-01T06:28:30.780Z,1007.13
2017-02-01T06:29:11.467Z,1007.16
2017-02-01T06:29:52.099Z,1007.19
2017-02-01T06:30:32.762Z,1007.19
2017-02-01T06:31:13.542Z,1007.22
2017-02-01T06:31:54.194Z,1007.22
2017-02-01T06:32:34.808Z,1007.23
2017-02-01T06:33:15.548Z,1007.25
2017-02-01T06:33:57.034Z,1007.22
2017-02-01T06:34:37.698Z,1007.29
2017-02-01T06:35:18.406Z,1007.28
2017-02-01T06:35:59.129Z,1007.3
2017-02-01T06:36:39.770Z,1007.28
2017-02-01T06:37:20.541Z,1007.28
2017-02-01T06:38:01.246Z,1007.3
2017-02-01T06:38:41.875Z,1007.29
2017-02-01T06:39:22.548Z,1007.27
2017-02-01T06:40:03.285Z,1007.25
2017-02-01T06:40:43.919Z,1007.29
2017-02-01T06:41:24.544Z,1007.3
2017-02-01T06:42:05.270Z,1007.28
2017-02-01T06:42:45.906Z,1007.33
2017-02-01T06:43:26.537Z,1007.33
2017-02-01T06:44:07.246Z,1007.31
2017-02-01T06:44:47.969Z,1007.3
2017-02-01T06:45:28.599Z,1007.27
2017-02-01T06:46:09.319Z,1007.28
2017-02-01T06:46:49.992Z,1007.26
2017-02-01T06:47:30.663Z,1007.27
2017-02-01T06:48:11.302Z,1007.25
2017-02-01T06:48:51.991Z,1007.27
2017-02-01T06:49:32.676Z,1007.29
2017-02-01T06:50:13.307Z,1007.33
2017-02-01T06:50:53.951Z,1007.34
2017-02-01T06:51:34.726Z,1007.38
2017-02-01T06:52:15.348Z,1007.38
2017-02-01T06:52:56.039Z,1007.4
2017-02-01T06:53:36.773Z,1007.44
2017-02-01T06:54:17.490Z,1007.46
2017-02-01T06:54:58.117Z,1007.5
2017-02-01T06:55:38.811Z,1007.51
2017-02-01T06:56:19.513Z,1007.52
2017-02-01T06:57:00.144Z,1007.52
2017-02-01T06:57:40.796Z,1007.54
2017-02-01T06:58:21.447Z,1007.58
2017-02-01T06:59:02.107Z,1007.57
2017-02-01T06:59:43.635Z,1007.61
2017-02-01T07:00:24.330Z,1007.64
2017-02-01T07:01:04.964Z,1007.62
2017-02-01T07:01:45.622Z,1007.62
2017-02-01T07:02:26.310Z,1007.67
2017-02-01T07:03:07.015Z,1007.64
2017-02-01T07:03:47.649Z,1007.68
2017-02-01T07:04:28.342Z,1007.68
2017-02-01T07:05:09.048Z,1007.7
2017-02-01T07:05:49.683Z,1007.75
2017-02-01T07:06:30.336Z,1007.69
2017-02-01T07:07:11.114Z,1007.72
2017-02-01T07:07:51.742Z,1007.7
2017-02-01T07:08:33.063Z,1007.73
2017-02-01T07:09:13.797Z,1007.72
2017-02-01T07:09:54.352Z,1007.7
2017-02-01T07:10:35.072Z,1007.71
2017-02-01T07:11:15.786Z,1007.68
2017-02-01T07:11:56.410Z,1007.69
2017-02-01T07:12:37.116Z,1007.67
2017-02-01T07:13:17.857Z,1007.69
2017-02-01T07:13:58.491Z,1007.72
2017-02-01T07:14:39.147Z,1007.72
2017-02-01T07:15:19.897Z,1007.72
2017-02-01T07:16:00.544Z,1007.74
2017-02-01T07:16:41.167Z,1007.79
2017-02-01T07:17:21.805Z,1007.79
2017-02-01T07:18:02.473Z,1007.85
2017-02-01T07:18:43.114Z,1007.86
2017-02-01T07:19:23.868Z,1007.86
2017-02-01T07:20:04.516Z,1007.89
2017-02-01T07:20:45.154Z,1007.92
2017-02-01T07:21:25.845Z,1007.96
2017-02-01T07:22:06.474Z,1007.96
2017-02-01T07:22:47.099Z,1008.02
2017-02-01T07:23:27.766Z,1007.96
2017-02-01T07:24:08.462Z,1007.98
2017-02-01T07:24:49.155Z,1008.02
2017-02-01T07:25:29.817Z,1008.01
2017-02-01T07:26:10.485Z,1008.01
2017-02-01T07:26:51.122Z,1008.02
2017-02-01T07:27:31.751Z,1008.02
2017-02-01T07:28:12.378Z,1008.02
2017-02-01T07:28:53.056Z,1008.05
2017-02-01T07:29:33.676Z,1008.02
2017-02-01T07:30:14.436Z,1008.03
2017-02-01T07:30:55.112Z,1008.03
2017-02-01T07:31:35.739Z,1008.04
2017-02-01T07:32:16.442Z,1008.01
2017-02-01T07:32:57.099Z,1008.01
2017-02-01T07:33:37.764Z,1007.98
2017-02-01T07:34:18.396Z,1007.93
2017-02-01T07:34:59.032Z,1008.02
2017-02-01T07:35:39.688Z,1007.97
2017-02-01T07:36:20.324Z,1007.95
2017-02-01T07:37:00.951Z,1007.97
2017-02-01T07:37:41.574Z,1008
2017-02-01T07:38:22.262Z,1008.02
2017-02-01T07:39:02.972Z,1008.01
2017-02-01T07:39:43.635Z,1008.02
2017-02-01T07:40:24.260Z,1008.01
2017-02-01T07:41:04.991Z,1008
2017-02-01T07:41:45.719Z,1007.99
2017-02-01T07:42:26.343Z,1007.99
2017-02-01T07:43:07.081Z,1008.01
2017-02-01T07:43:47.724Z,1008.02
2017-02-01T07:44:28.431Z,1008.05
2017-02-01T07:45:09.078Z,1008.05
2017-02-01T07:45:49.788Z,1008.01
2017-02-01T07:46:30.482Z,1008.08
2017-02-01T07:47:11.123Z,1008.07
2017-02-01T07:47:51.824Z,1008.05
2017-02-01T07:48:32.444Z,1008.04
2017-02-01T07:49:13.078Z,1008.02
2017-02-01T07:49:53.773Z,1008.07
2017-02-01T07:50:34.417Z,1008.12
2017-02-01T07:51:15.067Z,1008.1
2017-02-01T07:51:55.705Z,1008.15
2017-02-01T07:52:36.340Z,1008.17
2017-02-01T07:53:17.054Z,1008.15
2017-02-01T07:53:57.701Z,1008.19
2017-02-01T07:54:38.436Z,1008.21
2017-02-01T07:55:19.114Z,1008.23
2017-02-01T07:55:59.747Z,1008.26
2017-02-01T07:56:40.480Z,1008.28
2017-02-01T07:57:21.153Z,1008.33
2017-02-01T07:58:01.849Z,1008.34
2017-02-01T07:58:42.487Z,1008.32
2017-02-01T07:59:23.135Z,1008.37
2017-02-01T08:00:03.826Z,1008.37
2017-02-01T08:00:44.466Z,1008.36
2017-02-01T08:01:25.167Z,1008.37
2017-02-01T08:02:05.950Z,1008.35
2017-02-01T08:02:46.633Z,1008.4
2017-02-01T08:03:27.304Z,1008.37
2017-02-01T08:04:07.934Z,1008.4
2017-02-01T08:04:48.578Z,1008.43
2017-02-01T08:05:29.210Z,1008.42
2017-02-01T08:06:09.898Z,1008.43
2017-02-01T08:06:50.548Z,1008.4
2017-02-01T08:07:31.174Z,1008.44
2017-02-01T08:08:11.906Z,1008.41
2017-02-01T08:08:52.554Z,1008.42
2017-02-01T08:09:33.195Z,1008.45
2017-02-01T08:10:13.876Z,1008.46
2017-02-01T08:10:54.579Z,1008.45
2017-02-01T08:11:35.205Z,1008.45
2017-02-01T08:12:15.873Z,1008.46
2017-02-01T08:12:56.525Z,1008.46
2017-02-01T08:13:37.182Z,1008.44
2017-02-01T08:14:17.808Z,1008.45